Time;durP1;ratioP1;P1;durP2;ratioP2;P2;SDS_P1;SDS_P2;PMS_P1;PMS_P2;Temp;Humidity;BMP_temperature;BMP_pressure;BME280_temperature;BME280_humidity;BME280_pressure;Samples;Min_cycle;Max_cycle;Signal;HPM_P1;HPM_P2
2022/08/08 00:00:05;;;;;;;5.45;1.10;;;;;;;17.23;53.75;99051.53;4165622;28;20233;-53
2022/08/08 00:02:49;;;;;;;1.42;1.13;;;;;;;17.25;53.69;99051.25;4183758;28;20230;-52
2022/08/08 00:05:02;;;;;;;1.05;0.80;;;;;;;17.21;53.73;99055.69;4185694;28;20705;-52
2022/08/08 00:07:38;;;;;;;1.27;0.90;;;;;;;17.20;53.81;99054.03;4180978;28;20200;-53
2022/08/08 00:10:07;;;;;;;2.10;0.65;;;;;;;17.14;53.85;99052.38;4182714;28;20722;-52
2022/08/08 00:12:14;;;;;;;1.13;0.88;;;;;;;17.13;53.82;99056.25;4183216;28;20234;-53
2022/08/08 00:14:37;;;;;;;0.70;0.70;;;;;;;17.06;54.15;99055.72;4180422;28;20215;-52
2022/08/08 00:17:08;;;;;;;1.23;0.80;;;;;;;17.06;53.97;99056.53;4193361;28;20636;-52
2022/08/08 00:19:34;;;;;;;1.17;0.70;;;;;;;16.99;54.44;99050.44;4172337;28;20670;-52
2022/08/08 00:21:41;;;;;;;0.70;0.70;;;;;;;16.96;54.53;99050.19;4177121;28;20230;-52
2022/08/08 00:23:54;;;;;;;0.93;0.70;;;;;;;16.95;54.56;99054.06;4181926;28;20239;-52
2022/08/08 00:26:00;;;;;;;1.17;0.70;;;;;;;16.94;54.75;99052.41;4183023;28;20191;-52
2022/08/08 00:28:05;;;;;;;1.15;1.00;;;;;;;16.94;54.91;99052.41;4167092;28;20657;-52
2022/08/08 00:30:34;;;;;;;0.70;0.70;;;;;;;16.92;55.05;99049.09;4182544;28;20249;-53
2022/08/08 00:33:10;;;;;;;0.70;0.68;;;;;;;16.89;55.55;99049.63;4186044;28;20718;-53
2022/08/08 00:35:31;;;;;;;1.02;0.80;;;;;;;16.87;55.25;99062.91;4184933;28;20215;-52
2022/08/08 00:37:56;;;;;;;0.65;0.65;;;;;;;16.84;55.66;99063.44;4184974;28;20675;-51
2022/08/08 00:40:27;;;;;;;1.92;0.60;;;;;;;16.80;55.71;99059.59;4186250;28;20254;-53
2022/08/08 00:43:22;;;;;;;1.17;0.68;;;;;;;16.76;55.86;99054.91;4185924;28;20636;-53
2022/08/08 00:46:07;;;;;;;1.20;0.93;;;;;;;16.70;55.92;99056.81;4183817;28;20261;-52
2022/08/08 00:49:05;;;;;;;6.03;0.60;;;;;;;16.68;55.61;99070.09;4187590;28;21013;-52
2022/08/08 00:51:41;;;;;;;3.15;0.60;;;;;;;16.66;55.15;99055.72;4187048;28;20211;-53
2022/08/08 00:54:00;;;;;;;1.33;0.70;;;;;;;16.59;55.18;99055.19;4169830;28;20639;-52
2022/08/08 00:56:43;;;;;;;578.55;98.90;;;;;;;16.42;55.38;99051.84;4178108;28;20688;-53
2022/08/08 00:59:22;;;;;;;3.00;0.68;;;;;;;16.45;55.33;99043.00;4185164;28;20203;-52
2022/08/08 01:02:09;;;;;;;1.63;1.42;;;;;;;16.48;55.37;99047.13;4180651;28;20232;-53
2022/08/08 01:04:54;;;;;;;0.98;0.80;;;;;;;16.50;55.13;99048.53;4184737;28;20265;-52
2022/08/08 01:07:33;;;;;;;0.75;0.75;;;;;;;16.49;55.35;99038.56;4172365;28;20242;-53
2022/08/08 01:10:07;;;;;;;0.85;0.60;;;;;;;16.46;55.29;99027.25;4197660;28;20260;-53
2022/08/08 01:12:21;;;;;;;1.60;0.55;;;;;;;16.42;55.06;99032.50;4184603;28;20257;-52
2022/08/08 01:15:04;;;;;;;0.77;0.77;;;;;;;16.36;55.69;99028.03;4186788;28;20818;-52
2022/08/08 01:17:13;;;;;;;1.15;0.60;;;;;;;16.34;55.82;99027.50;4187680;28;21322;-52
2022/08/08 01:19:38;;;;;;;1.20;0.73;;;;;;;16.32;55.75;99032.47;4186804;28;22167;-52
2022/08/08 01:22:31;;;;;;;0.93;0.70;;;;;;;16.28;55.78;99020.28;4186562;28;20218;-52
2022/08/08 01:25:13;;;;;;;3.80;0.77;;;;;;;16.26;55.87;99019.75;4187772;28;20207;-53
2022/08/08 01:27:26;;;;;;;0.60;0.60;;;;;;;16.25;56.01;99031.06;4185332;28;20211;-52
2022/08/08 01:30:18;;;;;;;0.50;0.50;;;;;;;16.20;55.85;99026.38;4188185;28;20585;-52
2022/08/08 01:32:58;;;;;;;0.60;0.60;;;;;;;16.12;55.97;99020.53;4187666;28;20727;-54
2022/08/08 01:35:35;;;;;;;1.60;0.70;;;;;;;16.11;56.36;99030.78;4186023;28;20219;-54
2022/08/08 01:38:06;;;;;;;1.27;0.68;;;;;;;16.06;56.30;99028.00;4184854;28;20215;-53
2022/08/08 01:40:18;;;;;;;0.60;0.60;;;;;;;16.08;56.20;99033.22;4184328;28;20207;-52
2022/08/08 01:42:35;;;;;;;0.73;0.50;;;;;;;16.08;56.11;99031.31;4179815;28;20222;-52
2022/08/08 01:44:51;;;;;;;0.70;0.70;;;;;;;16.08;56.30;99031.31;4171785;28;21691;-53
2022/08/08 01:47:12;;;;;;;0.95;0.70;;;;;;;16.04;56.17;99034.88;4199358;28;20207;-51
2022/08/08 01:49:48;;;;;;;2.97;1.25;;;;;;;16.05;56.26;99042.06;4181239;28;20203;-51
2022/08/08 01:52:12;;;;;;;1.02;0.60;;;;;;;15.98;56.33;99047.03;4183426;28;20332;-53
2022/08/08 01:54:50;;;;;;;0.77;0.50;;;;;;;15.95;56.59;99034.59;4182890;28;20684;-53
2022/08/08 01:57:31;;;;;;;0.60;0.60;;;;;;;15.86;56.83;99038.16;4187528;28;20288;-51
2022/08/08 02:00:08;;;;;;;0.80;0.70;;;;;;;15.80;56.97;99040.06;4168222;28;20238;-53
2022/08/08 02:02:32;;;;;;;1.80;0.80;;;;;;;15.81;56.78;99044.47;4184043;28;20231;-52
2022/08/08 02:05:32;;;;;;;0.60;0.60;;;;;;;15.81;56.59;99036.19;4187661;28;20211;-52
2022/08/08 02:08:04;;;;;;;0.60;0.60;;;;;;;15.81;56.83;99044.47;4191913;28;20264;-51
2022/08/08 02:10:31;;;;;;;0.80;0.60;;;;;;;15.78;56.89;99047.78;4189664;28;20207;-52
2022/08/08 02:13:15;;;;;;;2.40;0.55;;;;;;;15.79;57.23;99046.69;4187226;28;21145;-53
2022/08/08 02:15:58;;;;;;;1.15;0.70;;;;;;;15.64;57.45;99049.38;4183553;28;20377;-53
2022/08/08 02:18:16;;;;;;;1.55;0.60;;;;;;;15.66;57.40;99051.88;4183679;28;20295;-53
2022/08/08 02:20:26;;;;;;;0.60;0.60;;;;;;;15.64;57.49;99054.06;4195617;28;20202;-53
2022/08/08 02:23:21;;;;;;;0.57;0.57;;;;;;;15.62;57.34;99054.34;4193191;28;20353;-52
2022/08/08 02:26:07;;;;;;;1.45;0.80;;;;;;;15.54;57.79;99054.00;4168527;28;20263;-53
2022/08/08 02:28:23;;;;;;;0.80;0.77;;;;;;;15.50;57.86;99062.00;4180561;28;20215;-53
2022/08/08 02:31:03;;;;;;;0.70;0.70;;;;;;;15.52;57.85;99070.84;4179494;28;20265;-53
2022/08/08 02:33:47;;;;;;;1.25;0.90;;;;;;;15.56;57.68;99066.44;4181287;28;20343;-53
2022/08/08 02:36:12;;;;;;;0.70;0.70;;;;;;;15.49;57.94;99059.53;4189233;28;20254;-53
2022/08/08 02:38:45;;;;;;;0.63;0.63;;;;;;;15.45;58.11;99070.28;4197762;28;20242;-52
2022/08/08 02:41:12;;;;;;;1.50;0.90;;;;;;;15.46;58.39;99068.31;4198980;28;20307;-53
2022/08/08 02:43:55;;;;;;;0.85;0.70;;;;;;;15.46;58.46;99065.56;4187834;28;20297;-52
2022/08/08 02:46:35;;;;;;;0.70;0.70;;;;;;;15.37;58.75;99062.47;4187014;28;20211;-52
2022/08/08 02:49:23;;;;;;;0.73;0.70;;;;;;;15.29;58.91;99071.22;4184851;28;20585;-52
2022/08/08 02:52:05;;;;;;;0.82;0.82;;;;;;;15.29;58.77;99065.72;4184850;28;20259;-52
2022/08/08 02:54:49;;;;;;;1.10;0.80;;;;;;;15.29;58.79;99068.47;4186150;28;20251;-52
2022/08/08 02:57:25;;;;;;;1.17;1.00;;;;;;;15.26;58.68;99063.50;4188030;28;20597;-52
2022/08/08 03:00:09;;;;;;;0.73;0.70;;;;;;;15.20;58.98;99061.81;4179286;28;20239;-53
2022/08/08 03:02:53;;;;;;;0.80;0.80;;;;;;;15.16;58.98;99060.66;4180304;28;20231;-53
2022/08/08 03:05:26;;;;;;;1.05;0.70;;;;;;;15.15;58.94;99059.00;4182075;28;20213;-52
2022/08/08 03:08:23;;;;;;;0.88;0.88;;;;;;;15.14;58.87;99057.34;4188231;28;20211;-52
2022/08/08 03:10:42;;;;;;;0.90;0.70;;;;;;;15.15;59.07;99058.16;4186161;28;20214;-53
2022/08/08 03:13:33;;;;;;;0.95;0.73;;;;;;;15.06;59.48;99060.63;4182881;28;20235;-52
2022/08/08 03:16:20;;;;;;;1.10;0.70;;;;;;;15.00;59.77;99056.16;4177801;28;20298;-52
2022/08/08 03:18:36;;;;;;;1.98;0.75;;;;;;;14.98;59.82;99052.84;4195103;28;20269;-52
2022/08/08 03:20:49;;;;;;;0.93;0.93;;;;;;;14.98;59.67;99057.53;4181629;28;20222;-52
2022/08/08 03:22:53;;;;;;;0.70;0.70;;;;;;;14.99;59.73;99060.03;4195647;28;20226;-52
2022/08/08 03:25:06;;;;;;;1.02;0.80;;;;;;;14.97;59.48;99056.69;4183026;28;20208;-52
2022/08/08 03:27:30;;;;;;;1.02;1.00;;;;;;;14.97;59.55;99062.19;4183908;28;20208;-52
2022/08/08 03:29:45;;;;;;;0.98;0.70;;;;;;;14.94;59.39;99062.72;4180964;28;20207;-53
2022/08/08 03:34:18;;;;;;;1.38;0.90;;;;;;;14.85;59.90;99058.81;4183636;28;20913;-52
2022/08/08 03:36:19;;;;;;;0.80;0.80;;;;;;;14.85;59.87;99056.06;4184867;28;20321;-53
2022/08/08 03:38:28;;;;;;;5.22;1.42;;;;;;;14.86;59.97;99063.22;4198238;28;20754;-52
2022/08/08 03:40:51;;;;;;;0.70;0.70;;;;;;;14.83;60.04;99060.16;4186158;28;20231;-53
2022/08/08 03:42:53;;;;;;;1.27;1.05;;;;;;;14.78;60.13;99052.72;4184816;28;20227;-52
2022/08/08 03:44:56;;;;;;;1.23;0.95;;;;;;;14.75;60.19;99053.22;4183979;28;20743;-51
2022/08/08 03:46:59;;;;;;;5.18;1.00;;;;;;;14.76;60.12;99049.34;4182843;28;20270;-52
2022/08/08 03:49:24;;;;;;;1.40;0.82;;;;;;;14.75;60.38;99053.22;4172617;28;20254;-53
2022/08/08 03:51:51;;;;;;;1.20;0.90;;;;;;;14.70;60.54;99061.44;4188862;28;20258;-55
2022/08/08 03:53:54;;;;;;;1.60;0.85;;;;;;;14.65;60.59;99058.66;4182746;28;20212;-51
2022/08/08 03:55:57;;;;;;;1.00;0.80;;;;;;;14.58;61.01;99059.97;4184702;28;20748;-54
2022/08/08 03:58:16;;;;;;;1.77;0.60;;;;;;;14.59;60.55;99065.22;4171787;28;20206;-54
2022/08/08 04:00:38;;;;;;;0.95;0.80;;;;;;;14.61;60.55;99067.69;4186316;28;20195;-53
2022/08/08 04:03:02;;;;;;;0.70;0.70;;;;;;;14.55;60.58;99072.31;4181011;28;20223;-53
2022/08/08 04:05:11;;;;;;;0.68;0.68;;;;;;;14.57;60.61;99072.88;4179237;28;20226;-53
2022/08/08 04:07:13;;;;;;;0.80;0.80;;;;;;;14.57;60.59;99075.63;4183978;28;20199;-52
2022/08/08 04:09:17;;;;;;;2.10;1.00;;;;;;;14.55;60.66;99074.25;4183006;28;20230;-53
2022/08/08 04:11:19;;;;;;;2.70;0.80;;;;;;;14.46;61.18;99073.91;4185680;28;20746;-54
2022/08/08 04:13:24;;;;;;;1.65;0.93;;;;;;;14.46;60.89;99076.66;4181769;28;20321;-52
2022/08/08 04:15:27;;;;;;;1.38;0.90;;;;;;;14.46;60.88;99073.91;4178863;28;20207;-54
2022/08/08 04:17:39;;;;;;;1.95;0.80;;;;;;;14.44;61.10;99084.34;4184553;28;20237;-54
2022/08/08 04:19:59;;;;;;;0.73;0.73;;;;;;;14.42;60.83;99086.53;4184048;28;21298;-52
2022/08/08 04:22:03;;;;;;;0.75;0.70;;;;;;;14.44;61.06;99084.34;4165841;28;20323;-54
2022/08/08 04:24:05;;;;;;;1.10;0.85;;;;;;;14.44;61.14;99081.59;4181102;28;20208;-53
2022/08/08 04:26:19;;;;;;;1.65;0.75;;;;;;;14.43;60.86;99079.91;4165447;28;20255;-54
2022/08/08 04:28:26;;;;;;;2.17;0.80;;;;;;;14.47;61.08;99085.75;4181388;28;20207;-52
2022/08/08 04:30:41;;;;;;;0.88;0.88;;;;;;;14.49;60.97;99089.91;4180609;28;20645;-54
2022/08/08 04:32:46;;;;;;;2.05;0.90;;;;;;;14.47;61.23;99094.84;4183948;28;20736;-53
2022/08/08 04:34:51;;;;;;;3.28;1.05;;;;;;;14.43;61.67;99093.69;4185670;28;20642;-54
2022/08/08 04:36:59;;;;;;;1.05;1.00;;;;;;;14.46;61.36;99092.34;4179961;28;20261;-53
2022/08/08 04:39:04;;;;;;;1.60;1.08;;;;;;;14.33;61.93;99093.59;4182433;28;20646;-53
2022/08/08 04:41:26;;;;;;;1.00;1.00;;;;;;;14.37;61.68;99089.22;4180565;28;20239;-53
2022/08/08 04:43:37;;;;;;;2.05;0.85;;;;;;;14.35;61.88;99090.56;4180161;28;21069;-52
2022/08/08 04:45:50;;;;;;;3.83;1.05;;;;;;;14.34;62.07;99105.44;4179499;28;21332;-54
2022/08/08 04:47:53;;;;;;;7.32;1.40;;;;;;;14.36;62.06;99098.59;4181695;28;20639;-53
2022/08/08 04:49:55;;;;;;;3.60;1.17;;;;;;;14.32;62.28;99102.97;4182294;28;20207;-53
2022/08/08 04:52:02;;;;;;;1.50;1.23;;;;;;;14.37;62.24;99104.94;4180093;28;20294;-53
2022/08/08 04:54:04;;;;;;;8.55;1.35;;;;;;;14.35;62.52;99098.84;4180780;28;20388;-54
2022/08/08 04:56:26;;;;;;;4.30;1.42;;;;;;;14.28;62.50;99101.81;4171249;28;20208;-53
2022/08/08 04:58:28;;;;;;;4.20;1.20;;;;;;;14.27;62.74;99113.91;4185456;28;20207;-53
2022/08/08 05:00:30;;;;;;;3.90;1.20;;;;;;;14.19;62.76;99114.38;4184105;28;20278;-54
2022/08/08 05:02:32;;;;;;;2.53;1.27;;;;;;;14.29;62.38;99119.97;4169875;28;20266;-53
2022/08/08 05:04:35;;;;;;;3.28;0.90;;;;;;;14.41;62.29;99117.91;4184194;28;20219;-53
2022/08/08 05:06:39;;;;;;;3.28;1.20;;;;;;;14.42;62.05;99118.75;4189038;28;20204;-54
2022/08/08 05:08:43;;;;;;;3.35;1.65;;;;;;;14.46;62.00;99117.97;4183556;28;20204;-53
2022/08/08 05:10:44;;;;;;;0.90;0.80;;;;;;;14.53;62.32;99126.84;4183974;28;20671;-53
2022/08/08 05:12:46;;;;;;;1.00;0.93;;;;;;;14.55;62.28;99126.56;4182228;28;20223;-52
2022/08/08 05:15:03;;;;;;;1.55;0.90;;;;;;;14.58;62.24;99124.13;4184949;28;20203;-54
2022/08/08 05:17:06;;;;;;;0.80;0.80;;;;;;;14.64;62.32;99128.59;4184125;28;20776;-53
2022/08/08 05:19:11;;;;;;;1.30;0.90;;;;;;;14.69;62.26;99128.66;4188246;28;20289;-53
2022/08/08 05:21:33;;;;;;;1.23;1.13;;;;;;;14.79;62.23;99128.75;4187182;28;20689;-54
2022/08/08 05:23:56;;;;;;;1.73;1.20;;;;;;;14.80;62.22;99135.09;4185360;28;20237;-52
2022/08/08 05:26:05;;;;;;;0.98;0.88;;;;;;;14.89;62.07;99131.59;4186146;28;20258;-52
2022/08/08 05:28:06;;;;;;;1.88;1.00;;;;;;;14.94;61.92;99134.41;4186373;28;20700;-51
2022/08/08 05:30:12;;;;;;;2.20;0.95;;;;;;;15.05;61.88;99141.66;4185645;28;20250;-52
2022/08/08 05:32:14;;;;;;;2.17;1.08;;;;;;;15.13;61.44;99141.16;4193206;28;20223;-53
2022/08/08 05:34:29;;;;;;;1.58;1.05;;;;;;;15.24;61.15;99140.13;4192326;28;20220;-52
2022/08/08 05:36:34;;;;;;;0.90;0.90;;;;;;;15.33;61.03;99144.09;4187995;28;20223;-53
2022/08/08 05:38:49;;;;;;;1.90;0.98;;;;;;;15.45;60.50;99147.50;4186816;28;20219;-53
2022/08/08 05:40:54;;;;;;;2.65;1.00;;;;;;;15.57;60.29;99148.09;4185824;28;20666;-53
2022/08/08 05:43:05;;;;;;;1.15;0.80;;;;;;;15.74;60.89;99146.00;4191257;28;20732;-53
2022/08/08 05:45:28;;;;;;;2.58;0.88;;;;;;;15.95;60.69;99152.47;4191901;28;20253;-52
2022/08/08 05:47:43;;;;;;;1.00;0.77;;;;;;;16.08;59.12;99158.31;4189988;28;20705;-53
2022/08/08 05:50:04;;;;;;;1.80;0.80;;;;;;;16.20;58.53;99158.94;4187985;28;20203;-53
2022/08/08 05:52:07;;;;;;;0.80;0.80;;;;;;;16.36;57.90;99155.09;4185497;28;20216;-52
2022/08/08 05:54:10;;;;;;;1.00;0.80;;;;;;;16.42;57.25;99147.72;4187421;28;20214;-52
2022/08/08 05:56:37;;;;;;;3.00;0.80;;;;;;;16.75;56.81;99152.75;4186845;28;20242;-52
2022/08/08 05:58:43;;;;;;;0.90;0.90;;;;;;;16.89;56.73;99138.09;4186044;28;20260;-53
2022/08/08 06:01:04;;;;;;;0.70;0.65;;;;;;;17.13;56.30;99150.28;4185698;28;20203;-52
2022/08/08 06:03:13;;;;;;;0.80;0.70;;;;;;;17.19;55.72;99150.00;4174517;28;20255;-52
2022/08/08 06:05:30;;;;;;;1.15;0.65;;;;;;;17.37;55.18;99155.00;4187036;28;20207;-53
2022/08/08 06:07:41;;;;;;;0.68;0.60;;;;;;;17.59;54.66;99160.25;4187446;28;20286;-53
2022/08/08 06:09:47;;;;;;;1.10;0.65;;;;;;;17.61;55.06;99153.31;4185960;28;20206;-53
2022/08/08 06:12:03;;;;;;;0.52;0.50;;;;;;;17.82;54.62;99160.47;4187011;28;20309;-52
2022/08/08 06:14:06;;;;;;;0.55;0.55;;;;;;;18.02;54.39;99160.41;4192255;28;20203;-53
2022/08/08 06:16:14;;;;;;;0.90;0.60;;;;;;;18.25;53.87;99164.47;4171484;28;20226;-54
2022/08/08 06:18:17;;;;;;;2.05;0.40;;;;;;;18.35;53.16;99165.28;4185485;28;20298;-52
2022/08/08 06:20:22;;;;;;;1.65;0.60;;;;;;;18.44;52.91;99163.56;4185572;28;20203;-52
2022/08/08 06:22:26;;;;;;;0.93;0.60;;;;;;;18.49;52.79;99166.34;4173348;28;20311;-53
2022/08/08 06:24:36;;;;;;;1.23;0.50;;;;;;;18.64;52.75;99162.66;4187060;28;20294;-53
2022/08/08 06:26:46;;;;;;;1.55;0.60;;;;;;;18.68;51.91;99169.28;4178157;28;20581;-53
2022/08/08 06:29:01;;;;;;;0.88;0.80;;;;;;;18.75;52.40;99175.31;4188819;28;20236;-53
2022/08/08 06:31:21;;;;;;;0.75;0.73;;;;;;;18.87;52.60;99173.88;4181582;28;20343;-52
2022/08/08 06:33:50;;;;;;;0.47;0.47;;;;;;;19.09;52.07;99182.59;4189756;28;20204;-52
2022/08/08 06:36:13;;;;;;;0.50;0.50;;;;;;;19.12;50.14;99175.63;4185944;28;20203;-53
2022/08/08 06:38:22;;;;;;;1.13;0.70;;;;;;;19.27;51.48;99181.09;4188491;28;20334;-52
2022/08/08 06:40:30;;;;;;;0.52;0.50;;;;;;;19.37;51.01;99179.06;4182615;28;20598;-53
2022/08/08 06:42:35;;;;;;;0.98;0.70;;;;;;;19.48;50.41;99177.03;4184891;28;20227;-54
2022/08/08 06:44:39;;;;;;;2.58;0.70;;;;;;;19.72;51.17;99180.69;4172627;28;20232;-52
2022/08/08 06:46:43;;;;;;;0.50;0.50;;;;;;;19.78;49.48;99179.50;4185071;28;20200;-51
2022/08/08 06:48:45;;;;;;;1.40;0.60;;;;;;;19.83;49.05;99179.44;4171676;28;20258;-52
2022/08/08 06:50:47;;;;;;;1.20;0.70;;;;;;;19.84;49.70;99178.34;4192559;28;20695;-53
2022/08/08 06:52:52;;;;;;;5.05;0.70;;;;;;;20.18;50.06;99179.09;4170766;28;20278;-52
2022/08/08 06:55:00;;;;;;;0.95;0.60;;;;;;;20.17;49.41;99181.03;4186639;28;20208;-52
2022/08/08 06:57:02;;;;;;;0.95;0.63;;;;;;;20.37;49.97;99183.56;4186507;28;20235;-52
2022/08/08 06:59:05;;;;;;;1.55;0.60;;;;;;;20.57;49.37;99193.63;4187121;28;20195;-52
2022/08/08 07:01:14;;;;;;;1.30;0.70;;;;;;;20.85;49.28;99195.47;4185536;28;20194;-53
2022/08/08 07:03:45;;;;;;;0.68;0.50;;;;;;;21.07;47.96;99192.94;4183784;28;21160;-53
2022/08/08 07:06:09;;;;;;;2.35;0.70;;;;;;;21.23;48.18;99194.38;4184094;28;20212;-52
2022/08/08 07:08:16;;;;;;;1.27;0.60;;;;;;;21.41;47.92;99193.50;4188897;28;20230;-52
2022/08/08 07:10:21;;;;;;;1.85;0.60;;;;;;;21.58;47.40;99193.78;4167315;28;20200;-52
2022/08/08 07:12:35;;;;;;;0.60;0.60;;;;;;;21.69;46.71;99195.25;4177125;28;20251;-52
2022/08/08 07:14:48;;;;;;;7.13;0.47;;;;;;;21.79;46.62;99200.66;4170547;28;20211;-53
2022/08/08 07:17:08;;;;;;;0.50;0.50;;;;;;;21.84;46.05;99192.22;4189339;28;20218;-54
2022/08/08 07:19:48;;;;;;;0.93;0.60;;;;;;;22.12;45.38;99199.50;4182511;28;20195;-53
2022/08/08 07:22:01;;;;;;;0.45;0.45;;;;;;;22.21;44.91;99197.63;4185896;28;20218;-51
2022/08/08 07:24:18;;;;;;;1.02;0.50;;;;;;;22.30;44.67;99196.59;4185268;28;20929;-52
2022/08/08 07:26:25;;;;;;;0.60;0.40;;;;;;;22.59;44.44;99199.13;4181485;28;20295;-52
2022/08/08 07:28:35;;;;;;;7.22;0.50;;;;;;;22.79;44.08;99204.25;4187499;28;20222;-53
2022/08/08 07:30:39;;;;;;;0.40;0.40;;;;;;;22.87;43.22;99195.13;4185276;28;20710;-52
2022/08/08 07:32:41;;;;;;;0.50;0.50;;;;;;;22.89;42.09;99204.03;4184964;28;20935;-53
2022/08/08 07:34:44;;;;;;;1.05;0.95;;;;;;;22.79;42.24;99205.09;4188692;28;20206;-52
2022/08/08 07:37:03;;;;;;;5.53;0.68;;;;;;;22.79;41.33;99209.84;4173445;28;20326;-51
2022/08/08 07:39:22;;;;;;;0.50;0.50;;;;;;;22.46;40.58;99199.94;4168171;28;20233;-52
2022/08/08 07:41:31;;;;;;;1.30;0.55;;;;;;;22.68;41.00;99206.44;4171739;28;20290;-52
2022/08/08 07:43:56;;;;;;;0.40;0.40;;;;;;;22.73;41.53;99205.50;4177510;28;20254;-51
2022/08/08 07:45:58;;;;;;;2.55;0.60;;;;;;;23.02;41.37;99204.00;4172698;28;20211;-53
2022/08/08 07:48:20;;;;;;;1.40;0.40;;;;;;;23.50;41.55;99205.09;4184752;28;20199;-51
2022/08/08 07:50:24;;;;;;;0.73;0.60;;;;;;;23.72;40.99;99199.53;4186921;28;20738;-51
2022/08/08 07:52:28;;;;;;;0.70;0.50;;;;;;;23.38;40.60;99204.84;4186712;28;20237;-53
2022/08/08 07:54:36;;;;;;;2.50;0.40;;;;;;;23.76;40.84;99203.31;4185482;28;20198;-52
2022/08/08 07:57:15;;;;;;;1.98;1.60;;;;;;;23.80;38.32;99204.34;4186511;28;20198;-50
2022/08/08 07:59:18;;;;;;;0.70;0.63;;;;;;;23.52;38.92;99210.38;4175892;28;20211;-52
2022/08/08 08:01:25;;;;;;;1.98;0.60;;;;;;;23.64;39.78;99205.06;4185028;28;20219;-53
2022/08/08 08:03:47;;;;;;;1.85;0.60;;;;;;;24.07;39.21;99205.00;4177728;28;20218;-52
2022/08/08 08:05:52;;;;;;;0.63;0.32;;;;;;;23.97;39.04;99209.25;4185011;28;20203;-52
2022/08/08 08:08:06;;;;;;;1.38;0.40;;;;;;;24.16;38.87;99214.28;4180984;28;20252;-51
2022/08/08 08:10:10;;;;;;;1.08;0.50;;;;;;;24.45;38.64;99217.38;4169312;28;20195;-52
2022/08/08 08:12:15;;;;;;;4.00;0.40;;;;;;;24.51;37.83;99216.09;4189418;28;20222;-52
2022/08/08 08:15:05;;;;;;;1.00;0.40;;;;;;;24.41;37.24;99204.38;4188967;28;20199;-51
2022/08/08 08:17:09;;;;;;;1.77;0.40;;;;;;;24.28;37.91;99217.31;4186828;28;20261;-52
2022/08/08 08:19:16;;;;;;;1.55;0.35;;;;;;;24.63;38.35;99207.94;4187602;28;20333;-52
2022/08/08 08:21:21;;;;;;;1.70;0.57;;;;;;;24.84;37.19;99217.38;4190992;28;20198;-53
2022/08/08 08:23:43;;;;;;;1.38;0.40;;;;;;;24.76;37.45;99222.94;4186601;28;20680;-52
2022/08/08 08:25:51;;;;;;;0.55;0.40;;;;;;;24.87;38.13;99213.91;4183877;28;20202;-51
2022/08/08 08:28:00;;;;;;;0.90;0.50;;;;;;;24.78;37.16;99218.69;4184385;28;20210;-51
2022/08/08 08:30:04;;;;;;;1.55;0.50;;;;;;;25.20;38.01;99217.13;4185707;28;20211;-51
2022/08/08 08:32:08;;;;;;;3.20;0.50;;;;;;;25.38;37.97;99214.03;4169195;28;20233;-51
2022/08/08 08:34:11;;;;;;;3.15;0.50;;;;;;;25.75;37.86;99213.34;4187521;28;20576;-51
2022/08/08 08:36:15;;;;;;;1.52;0.50;;;;;;;25.69;38.50;99222.25;4182122;28;20241;-51
2022/08/08 08:38:21;;;;;;;1.42;0.50;;;;;;;25.85;37.68;99224.22;4189251;28;20219;-51
2022/08/08 08:40:23;;;;;;;1.73;0.30;;;;;;;26.01;37.87;99211.34;4182767;28;20629;-51
2022/08/08 08:42:26;;;;;;;0.30;0.30;;;;;;;25.78;35.87;99223.88;4169581;28;20874;-51
2022/08/08 08:44:37;;;;;;;1.75;0.40;;;;;;;26.08;36.06;99211.66;4182121;28;20576;-51
2022/08/08 08:46:39;;;;;;;2.70;0.60;;;;;;;26.53;37.16;99218.44;4164402;28;20211;-52
2022/08/08 08:48:49;;;;;;;1.08;0.43;;;;;;;26.37;35.83;99220.16;4182601;28;20209;-52
2022/08/08 08:50:53;;;;;;;0.93;0.50;;;;;;;26.33;35.51;99219.16;4172222;28;20203;-53
2022/08/08 08:52:56;;;;;;;0.70;0.40;;;;;;;26.16;36.67;99219.22;4189409;28;20219;-51
2022/08/08 08:55:05;;;;;;;1.30;0.55;;;;;;;26.33;37.26;99218.34;4184757;28;20211;-51
2022/08/08 08:57:08;;;;;;;0.50;0.40;;;;;;;26.43;36.83;99215.16;4175616;28;20203;-51
2022/08/08 08:59:18;;;;;;;1.08;0.40;;;;;;;26.70;36.08;99224.00;4187661;28;20727;-52
2022/08/08 09:01:42;;;;;;;0.63;0.50;;;;;;;26.82;36.13;99217.66;4187773;28;20249;-52
2022/08/08 09:03:49;;;;;;;5.28;0.60;;;;;;;26.99;35.99;99220.38;4192068;28;20203;-52
2022/08/08 09:05:52;;;;;;;0.47;0.30;;;;;;;27.09;36.17;99215.19;4189541;28;20294;-51
2022/08/08 09:07:58;;;;;;;1.55;0.47;;;;;;;26.99;35.34;99221.19;4192119;28;20257;-51
2022/08/08 09:10:20;;;;;;;1.35;0.43;;;;;;;27.39;35.45;99219.59;4187091;28;20207;-52
2022/08/08 09:12:24;;;;;;;2.65;0.40;;;;;;;26.79;33.74;99219.16;4171670;28;20220;-54
2022/08/08 09:14:28;;;;;;;4.75;0.90;;;;;;;26.48;33.80;99226.22;4186382;28;20583;-52
2022/08/08 09:16:30;;;;;;;0.40;0.40;;;;;;;26.28;34.15;99221.34;4188871;28;20211;-51
2022/08/08 09:18:33;;;;;;;0.45;0.40;;;;;;;26.71;34.65;99217.22;4172570;28;20223;-51
2022/08/08 09:20:38;;;;;;;2.60;0.43;;;;;;;26.90;33.83;99223.22;4176517;28;20203;-53
2022/08/08 09:23:00;;;;;;;1.13;0.30;;;;;;;27.14;34.57;99217.78;4189004;28;20223;-51
2022/08/08 09:25:04;;;;;;;2.85;0.57;;;;;;;27.42;32.91;99207.69;4172460;28;20235;-51
2022/08/08 09:27:08;;;;;;;2.35;0.50;;;;;;;27.57;33.52;99209.84;4187332;28;20199;-52
2022/08/08 09:29:24;;;;;;;3.38;0.30;;;;;;;27.38;32.55;99206.72;4185918;28;20209;-51
2022/08/08 09:31:41;;;;;;;1.80;0.80;;;;;;;27.75;33.77;99216.97;4185755;28;20306;-51
2022/08/08 09:34:00;;;;;;;2.30;0.73;;;;;;;27.67;31.79;99215.06;4194137;28;20517;-52
2022/08/08 09:36:22;;;;;;;2.08;0.65;;;;;;;27.57;32.19;99209.84;4185326;28;20203;-51
2022/08/08 09:38:52;;;;;;;0.55;0.50;;;;;;;27.67;32.81;99209.47;4171573;28;20266;-51
2022/08/08 09:41:02;;;;;;;6.22;0.50;;;;;;;27.53;32.34;99214.50;4190574;28;20588;-52
2022/08/08 09:43:27;;;;;;;2.03;0.88;;;;;;;27.77;32.03;99203.41;4169884;28;20226;-51
2022/08/08 09:45:52;;;;;;;1.95;0.70;;;;;;;27.48;32.12;99203.50;4186566;28;20813;-51
2022/08/08 09:48:05;;;;;;;1.13;0.40;;;;;;;27.42;32.22;99212.47;4185362;28;20214;-50
2022/08/08 09:50:25;;;;;;;0.75;0.45;;;;;;;27.51;31.98;99202.78;4189629;28;20213;-50
2022/08/08 09:52:31;;;;;;;12.32;0.50;;;;;;;27.77;32.15;99211.84;4189860;28;20230;-51
2022/08/08 09:54:54;;;;;;;0.85;0.50;;;;;;;27.79;31.66;99206.69;4185857;28;20203;-51
2022/08/08 09:57:01;;;;;;;2.13;0.50;;;;;;;27.97;31.15;99208.19;4189216;28;20316;-52
2022/08/08 09:59:06;;;;;;;3.33;0.60;;;;;;;28.01;30.90;99203.50;4189776;28;20249;-52
2022/08/08 10:01:29;;;;;;;0.75;0.50;;;;;;;27.93;31.66;99201.59;4185937;28;20238;-53
2022/08/08 10:03:53;;;;;;;1.42;0.35;;;;;;;28.33;31.74;99199.00;4185441;28;20205;-52
2022/08/08 10:05:59;;;;;;;1.17;0.55;;;;;;;28.36;30.46;99209.59;4186470;28;20315;-52
2022/08/08 10:08:03;;;;;;;0.45;0.45;;;;;;;28.35;31.43;99202.28;4202987;28;20218;-52
2022/08/08 10:10:10;;;;;;;1.50;0.43;;;;;;;28.65;31.44;99201.75;4183948;28;20277;-52
2022/08/08 10:12:12;;;;;;;0.40;0.40;;;;;;;28.12;30.87;99204.69;4185998;28;20680;-53
2022/08/08 10:14:34;;;;;;;3.13;0.65;;;;;;;27.95;32.11;99204.06;4184374;28;20230;-51
2022/08/08 10:16:41;;;;;;;1.65;0.60;;;;;;;28.14;31.47;99201.53;4182546;28;20234;-52
2022/08/08 10:18:43;;;;;;;3.55;0.60;;;;;;;28.16;32.28;99193.56;4184756;28;20219;-52
2022/08/08 10:20:49;;;;;;;0.73;0.40;;;;;;;28.80;31.66;99206.72;4184926;28;20195;-52
2022/08/08 10:23:04;;;;;;;1.48;0.63;;;;;;;28.17;30.95;99184.78;4186389;28;20230;-53
2022/08/08 10:25:19;;;;;;;6.80;0.70;;;;;;;28.43;31.63;99193.75;4183684;28;20914;-53
2022/08/08 10:27:27;;;;;;;2.20;0.57;;;;;;;28.61;31.02;99200.00;4185518;28;20460;-52
2022/08/08 10:29:50;;;;;;;0.70;0.60;;;;;;;28.01;30.96;99185.78;4183638;28;20748;-55
2022/08/08 10:34:22;;;;;;;0.98;0.75;;;;;;;28.40;30.99;99188.81;4182840;28;20457;-53
2022/08/08 10:36:28;;;;;;;0.77;0.77;;;;;;;28.72;30.96;99185.09;4195274;28;20267;-53
2022/08/08 10:38:33;;;;;;;0.50;0.50;;;;;;;29.01;30.23;99190.50;4185363;28;20636;-53
2022/08/08 10:40:37;;;;;;;0.63;0.40;;;;;;;28.75;30.13;99184.38;4183243;28;20203;-51
2022/08/08 10:42:40;;;;;;;1.23;0.40;;;;;;;29.02;29.64;99185.69;4187509;28;20276;-53
2022/08/08 10:44:45;;;;;;;2.75;0.40;;;;;;;28.72;30.31;99184.28;4185751;28;20298;-52
2022/08/08 10:46:50;;;;;;;0.77;0.40;;;;;;;29.06;30.58;99178.97;4187914;28;20214;-50